Time;durP1;ratioP1;P1;durP2;ratioP2;P2;SDS_P1;SDS_P2;PMS_P1;PMS_P2;Temp;Humidity;BMP_temperature;BMP_pressure;BME280_temperature;BME280_humidity;BME280_pressure;Samples;Min_cycle;Max_cycle;Signal;HPM_P1;HPM_P2
2023/10/01 00:01:45;;;;;;;19.90;7.55;;;8.00;99.90;;;;;;5031167;28;20053;-83
2023/10/01 00:04:11;;;;;;;14.55;7.40;;;8.00;99.90;;;;;;5030316;28;20038;-82
2023/10/01 00:06:37;;;;;;;18.55;7.50;;;8.00;99.90;;;;;;5013804;28;20029;-83
2023/10/01 00:09:06;;;;;;;23.45;8.43;;;8.00;99.90;;;;;;5030538;28;20492;-83
2023/10/01 00:11:38;;;;;;;19.55;8.25;;;8.00;99.90;;;;;;5015297;28;20049;-82
2023/10/01 00:14:08;;;;;;;11.07;6.68;;;8.00;99.90;;;;;;5014100;28;20030;-82
2023/10/01 00:16:37;;;;;;;13.90;7.00;;;7.90;99.90;;;;;;5014452;28;20026;-82
2023/10/01 00:19:04;;;;;;;15.50;7.38;;;7.90;99.90;;;;;;5014224;28;20065;-83
2023/10/01 00:21:30;;;;;;;11.13;6.30;;;7.80;99.90;;;;;;5030542;28;20034;-83
2023/10/01 00:23:56;;;;;;;19.25;7.68;;;7.80;99.90;;;;;;5013741;28;20036;-82
2023/10/01 00:26:23;;;;;;;13.38;6.85;;;7.80;99.90;;;;;;5014083;28;20812;-83
2023/10/01 00:28:52;;;;;;;18.30;6.82;;;7.80;99.90;;;;;;5030311;28;20030;-82
2023/10/01 00:31:19;;;;;;;18.77;7.90;;;7.80;99.90;;;;;;5013238;28;20125;-83
2023/10/01 00:33:47;;;;;;;21.48;8.38;;;7.70;99.90;;;;;;5030396;28;20060;-83
2023/10/01 00:36:13;;;;;;;16.75;7.43;;;7.80;99.90;;;;;;5015229;28;20037;-83
2023/10/01 00:38:39;;;;;;;14.68;7.70;;;7.80;99.90;;;;;;5013850;28;20042;-82
2023/10/01 00:41:07;;;;;;;12.38;7.07;;;7.80;99.90;;;;;;5013965;28;20107;-82
2023/10/01 00:43:33;;;;;;;13.05;6.85;;;7.80;99.90;;;;;;5014059;28;20069;-82
2023/10/01 00:45:59;;;;;;;18.75;8.77;;;7.80;99.90;;;;;;5014240;28;20072;-83
2023/10/01 00:48:25;;;;;;;13.80;7.93;;;7.80;99.90;;;;;;5014099;28;20026;-82
2023/10/01 00:50:52;;;;;;;15.48;8.55;;;7.80;99.90;;;;;;5013449;28;20359;-83
2023/10/01 00:53:19;;;;;;;15.48;8.13;;;7.80;99.90;;;;;;5013503;28;20022;-83
2023/10/01 00:55:45;;;;;;;22.83;9.07;;;7.80;99.90;;;;;;5026334;28;20052;-82
2023/10/01 00:58:11;;;;;;;16.23;7.72;;;7.70;99.90;;;;;;5013339;28;20056;-82
2023/10/01 01:00:37;;;;;;;20.75;9.38;;;7.70;99.90;;;;;;5014498;28;20120;-82
2023/10/01 01:03:18;;;;;;;18.35;8.95;;;7.60;99.90;;;;;;5029998;28;20044;-83
2023/10/01 01:06:23;;;;;;;19.40;9.23;;;7.60;99.90;;;;;;5013116;28;20034;-83
2023/10/01 01:08:54;;;;;;;24.83;10.30;;;7.60;99.90;;;;;;5013388;28;20030;-83
2023/10/01 01:11:21;;;;;;;15.48;9.02;;;7.50;99.90;;;;;;5013203;28;20094;-82
2023/10/01 01:13:51;;;;;;;21.45;10.35;;;7.50;99.90;;;;;;5029730;28;20496;-83
2023/10/01 01:16:19;;;;;;;16.25;9.13;;;7.40;99.90;;;;;;5012608;28;20038;-82
2023/10/01 01:18:57;;;;;;;21.50;10.43;;;7.40;99.90;;;;;;5029698;28;20029;-83
2023/10/01 01:21:23;;;;;;;25.25;12.05;;;7.40;99.90;;;;;;5013011;28;20033;-83
2023/10/01 01:23:50;;;;;;;23.73;11.13;;;7.50;99.90;;;;;;5013113;28;20044;-82
2023/10/01 01:26:21;;;;;;;26.55;12.43;;;7.40;99.90;;;;;;5012568;28;20036;-83
2023/10/01 01:28:48;;;;;;;23.27;11.88;;;7.50;99.90;;;;;;5012969;28;20163;-82
2023/10/01 01:31:14;;;;;;;34.00;14.05;;;7.40;99.90;;;;;;5012827;28;20868;-83
2023/10/01 01:33:40;;;;;;;24.25;11.38;;;7.40;99.90;;;;;;5029718;28;20041;-83
2023/10/01 01:36:10;;;;;;;25.05;11.70;;;7.50;99.90;;;;;;5012376;28;20026;-83
2023/10/01 01:38:38;;;;;;;23.40;11.13;;;7.50;99.90;;;;;;5012718;28;20022;-82
2023/10/01 01:41:12;;;;;;;26.17;11.55;;;7.50;99.90;;;;;;5012240;28;20034;-83
2023/10/01 01:43:38;;;;;;;26.77;11.57;;;7.40;99.90;;;;;;5013014;28;20029;-82
2023/10/01 01:46:08;;;;;;;22.55;11.27;;;7.50;99.90;;;;;;5012670;28;20604;-83
2023/10/01 01:48:40;;;;;;;22.67;12.52;;;7.40;99.90;;;;;;5013005;28;20026;-83
2023/10/01 01:51:07;;;;;;;25.15;12.23;;;7.40;99.90;;;;;;5012653;28;20072;-82
2023/10/01 01:53:35;;;;;;;27.15;11.60;;;7.40;99.90;;;;;;5012467;28;20036;-83
2023/10/01 01:56:12;;;;;;;24.48;12.35;;;7.40;99.90;;;;;;5008864;28;20025;-83
2023/10/01 01:58:39;;;;;;;24.38;11.90;;;7.40;99.90;;;;;;5012396;28;20489;-83
2023/10/01 02:01:17;;;;;;;24.38;12.20;;;7.40;99.90;;;;;;5011909;28;20026;-82
2023/10/01 02:03:46;;;;;;;23.80;12.18;;;7.40;99.90;;;;;;5012077;28;20025;-82
2023/10/01 02:06:13;;;;;;;36.92;12.88;;;7.40;99.90;;;;;;5012577;28;20037;-82
2023/10/01 02:08:54;;;;;;;23.55;11.35;;;7.40;99.90;;;;;;5012604;28;20084;-83
2023/10/01 02:11:21;;;;;;;31.00;13.18;;;7.30;99.90;;;;;;5012033;28;20125;-83
2023/10/01 02:13:51;;;;;;;21.02;12.23;;;7.40;99.90;;;;;;5012424;28;20029;-82
2023/10/01 02:16:19;;;;;;;27.45;12.85;;;7.30;99.90;;;;;;5012469;28;20394;-82
2023/10/01 02:21:49;;;;;;;25.02;12.77;;;7.30;99.90;;;;;;5028651;28;20072;-82
2023/10/01 02:24:23;;;;;;;31.15;12.25;;;7.30;99.90;;;;;;5011987;28;20037;-82
2023/10/01 02:26:59;;;;;;;32.63;12.95;;;7.20;99.90;;;;;;5011425;28;20056;-82
2023/10/01 02:29:32;;;;;;;32.97;13.93;;;7.30;99.90;;;;;;5012341;28;20044;-82
2023/10/01 02:32:04;;;;;;;30.30;14.13;;;7.20;99.90;;;;;;5011718;28;20030;-82
2023/10/01 02:34:31;;;;;;;31.15;14.30;;;7.30;99.90;;;;;;5011794;28;20026;-83
2023/10/01 02:36:58;;;;;;;30.88;15.02;;;7.30;99.90;;;;;;5011969;28;20414;-83
2023/10/01 02:39:32;;;;;;;30.23;14.25;;;7.40;99.90;;;;;;5011870;28;20034;-82
2023/10/01 02:44:39;;;;;;;28.88;13.98;;;7.40;99.90;;;;;;5027818;28;20038;-82
2023/10/01 02:47:16;;;;;;;29.55;14.05;;;7.40;99.90;;;;;;5013171;28;20061;-83
2023/10/01 02:49:49;;;;;;;29.20;13.43;;;7.40;99.90;;;;;;5012287;28;20037;-82
2023/10/01 02:52:23;;;;;;;28.50;14.13;;;7.40;99.90;;;;;;4995387;28;20417;-82
2023/10/01 02:54:57;;;;;;;28.33;13.20;;;7.40;99.90;;;;;;5011530;28;20061;-83
2023/10/01 02:57:26;;;;;;;27.33;13.98;;;7.40;99.90;;;;;;5008216;28;20030;-83
2023/10/01 03:02:44;;;;;;;35.20;13.43;;;7.40;99.90;;;;;;5028065;28;20133;-83
2023/10/01 03:05:19;;;;;;;28.42;13.90;;;7.30;99.90;;;;;;5011834;28;20125;-83
2023/10/01 03:07:50;;;;;;;25.88;13.25;;;7.30;99.90;;;;;;5011639;28;20425;-83
2023/10/01 03:10:25;;;;;;;34.72;14.18;;;7.30;99.90;;;;;;5010974;28;20041;-83
2023/10/01 03:12:58;;;;;;;29.95;14.05;;;7.30;99.90;;;;;;5010986;28;20030;-83
2023/10/01 03:15:29;;;;;;;32.08;14.40;;;7.40;99.90;;;;;;5011138;28;20084;-83
2023/10/01 03:17:57;;;;;;;;;;;7.40;99.90;;;;;;5011830;28;20038;-82
2023/10/01 03:31:24;;;;;;;34.13;15.43;;;7.30;99.90;;;;;;5027354;28;20034;-83
2023/10/01 03:33:58;;;;;;;36.53;15.52;;;7.30;99.90;;;;;;5010777;28;20542;-83
2023/10/01 03:36:25;;;;;;;36.67;15.70;;;7.30;99.90;;;;;;5010673;28;20418;-83
2023/10/01 03:39:25;;;;;;;35.45;15.30;;;7.30;99.90;;;;;;5012917;28;20049;-82
2023/10/01 03:41:54;;;;;;;38.13;17.75;;;7.30;99.90;;;;;;5012825;28;20072;-82
2023/10/01 03:44:40;;;;;;;39.58;18.58;;;7.30;99.90;;;;;;5014962;28;20040;-83
2023/10/01 03:47:09;;;;;;;46.17;19.25;;;7.40;99.90;;;;;;5014758;28;20038;-83
2023/10/01 03:49:43;;;;;;;48.03;21.33;;;7.50;99.90;;;;;;5014925;28;20034;-82
2023/10/01 03:52:09;;;;;;;39.67;19.15;;;7.60;99.90;;;;;;5014374;28;20099;-82
2023/10/01 03:57:20;;;;;;;41.25;18.20;;;7.60;99.90;;;;;;5015809;28;20026;-82
2023/10/01 03:59:53;;;;;;;49.30;19.85;;;7.60;99.90;;;;;;5010758;28;20485;-82
2023/10/01 04:05:21;;;;;;;41.10;19.88;;;7.70;99.90;;;;;;5030943;28;20034;-83
2023/10/01 04:07:48;;;;;;;48.47;20.25;;;7.80;99.90;;;;;;5014213;28;20030;-83
2023/10/01 04:10:15;;;;;;;41.42;19.33;;;7.80;99.90;;;;;;5013866;28;20393;-83
2023/10/01 04:12:44;;;;;;;46.28;21.63;;;7.70;99.90;;;;;;5014360;28;20489;-83
2023/10/01 04:15:15;;;;;;;44.00;19.77;;;7.60;99.90;;;;;;5014235;28;20123;-82
2023/10/01 04:18:08;;;;;;;46.78;21.05;;;7.60;99.90;;;;;;5014399;28;20092;-82
2023/10/01 04:20:28;;;;;;;61.45;25.08;;;7.50;99.90;;;;;;5014008;28;20034;-82
2023/10/01 04:23:04;;;;;;;53.72;25.02;;;7.50;99.90;;;;;;5014269;28;20022;-83
2023/10/01 04:25:36;;;;;;;66.22;27.08;;;7.60;99.90;;;;;;5014170;28;20038;-83
2023/10/01 04:28:05;;;;;;;61.90;26.98;;;7.60;99.90;;;;;;5013868;28;20124;-83
2023/10/01 04:30:34;;;;;;;69.38;28.58;;;7.60;99.90;;;;;;5030215;28;20034;-83
2023/10/01 04:33:16;;;;;;;70.30;30.38;;;7.60;99.90;;;;;;5014003;28;20219;-83
2023/10/01 04:35:51;;;;;;;65.70;30.02;;;7.70;99.90;;;;;;5013844;28;20030;-83
2023/10/01 04:38:20;;;;;;;62.65;27.45;;;7.70;99.90;;;;;;5013953;28;20117;-83
2023/10/01 04:40:48;;;;;;;69.72;27.52;;;7.70;99.90;;;;;;5030603;28;20037;-83
2023/10/01 04:43:16;;;;;;;70.57;28.13;;;7.70;99.90;;;;;;5015269;28;20034;-83
2023/10/01 04:45:45;;;;;;;64.57;28.83;;;7.70;99.90;;;;;;5013977;28;20079;-82
2023/10/01 04:48:24;;;;;;;54.70;25.95;;;7.60;99.90;;;;;;5013969;28;20041;-83
2023/10/01 04:50:53;;;;;;;59.90;24.88;;;7.50;99.90;;;;;;5013482;28;20048;-82
2023/10/01 04:53:21;;;;;;;58.33;25.02;;;7.40;99.90;;;;;;5013656;28;20041;-82
2023/10/01 04:56:06;;;;;;;57.28;24.95;;;7.30;99.90;;;;;;5013620;28;20037;-82
2023/10/01 04:58:41;;;;;;;51.95;23.75;;;7.30;99.90;;;;;;5010163;28;20046;-83
2023/10/01 05:01:12;;;;;;;51.53;23.00;;;7.20;99.90;;;;;;5029691;28;20029;-83
2023/10/01 05:03:39;;;;;;;66.50;25.50;;;7.20;99.90;;;;;;5013728;28;20044;-82
2023/10/01 05:06:09;;;;;;;65.45;25.02;;;7.20;99.90;;;;;;5015042;28;20037;-83
2023/10/01 05:08:38;;;;;;;69.38;28.00;;;7.20;99.90;;;;;;5013376;28;20033;-82
2023/10/01 05:11:12;;;;;;;54.65;24.90;;;7.20;99.90;;;;;;5013371;28;20030;-83
2023/10/01 05:13:41;;;;;;;61.60;26.58;;;7.20;99.90;;;;;;5011588;28;20026;-83
2023/10/01 05:16:14;;;;;;;61.35;25.40;;;7.20;99.90;;;;;;5012622;28;20465;-83
2023/10/01 05:18:45;;;;;;;53.78;23.15;;;7.20;99.90;;;;;;5012996;28;20037;-83
2023/10/01 05:21:21;;;;;;;58.33;23.85;;;7.20;99.90;;;;;;5012433;28;20029;-83
2023/10/01 05:23:47;;;;;;;58.35;25.17;;;7.30;99.90;;;;;;5029289;28;20033;-83
2023/10/01 05:26:20;;;;;;;62.03;23.85;;;7.30;99.90;;;;;;5012790;28;20030;-83
2023/10/01 05:28:48;;;;;;;58.78;24.92;;;7.30;99.90;;;;;;5012524;28;20406;-83
2023/10/01 05:31:14;;;;;;;58.65;24.55;;;7.40;99.90;;;;;;5012930;28;20045;-83
2023/10/01 05:33:45;;;;;;;59.67;25.95;;;7.40;99.90;;;;;;5012893;28;20052;-83
2023/10/01 05:36:13;;;;;;;67.05;26.65;;;7.40;99.90;;;;;;5012470;28;20036;-83
2023/10/01 05:38:43;;;;;;;59.72;24.20;;;7.40;99.90;;;;;;5012375;28;20037;-83
2023/10/01 05:41:09;;;;;;;54.50;24.27;;;7.40;99.90;;;;;;5012493;28;20101;-83
2023/10/01 05:43:43;;;;;;;62.33;25.95;;;7.50;99.90;;;;;;5012571;28;20033;-83
2023/10/01 05:46:12;;;;;;;69.80;25.65;;;7.60;99.90;;;;;;5012377;28;20030;-83
2023/10/01 05:48:39;;;;;;;58.65;24.48;;;7.60;99.90;;;;;;5029332;28;20037;-83
2023/10/01 05:51:15;;;;;;;59.33;25.00;;;7.70;99.90;;;;;;5009812;28;20450;-83
2023/10/01 05:53:48;;;;;;;65.97;24.25;;;7.80;99.90;;;;;;5012009;28;20121;-83
2023/10/01 05:56:19;;;;;;;58.70;23.75;;;7.80;99.90;;;;;;5011536;28;20068;-83
2023/10/01 05:58:45;;;;;;;55.40;23.23;;;7.80;99.90;;;;;;5012244;28;20034;-83
2023/10/01 06:01:14;;;;;;;54.30;23.10;;;7.80;99.90;;;;;;5010815;28;20551;-83
2023/10/01 06:03:42;;;;;;;56.17;22.30;;;7.90;99.90;;;;;;5028424;28;20038;-83
2023/10/01 06:06:13;;;;;;;50.67;23.67;;;8.00;99.90;;;;;;5012398;28;20092;-83
2023/10/01 06:08:49;;;;;;;60.05;24.58;;;8.00;99.90;;;;;;5028593;28;20042;-84
2023/10/01 06:11:17;;;;;;;53.50;22.08;;;8.10;99.90;;;;;;5011441;28;20174;-83
2023/10/01 06:13:56;;;;;;;56.03;22.05;;;8.20;99.90;;;;;;5011999;28;20476;-83
2023/10/01 06:16:23;;;;;;;50.67;22.50;;;8.20;99.90;;;;;;5011893;28;20096;-84
2023/10/01 06:18:57;;;;;;;48.53;20.92;;;8.20;99.90;;;;;;5011990;28;20030;-83
2023/10/01 06:21:28;;;;;;;56.78;24.80;;;8.20;99.90;;;;;;5012074;28;20040;-83
2023/10/01 06:23:58;;;;;;;61.70;25.20;;;8.30;99.90;;;;;;5011880;28;20061;-83
2023/10/01 06:26:42;;;;;;;51.17;21.92;;;8.50;99.90;;;;;;4995678;28;20277;-83
2023/10/01 06:29:10;;;;;;;46.15;20.67;;;8.60;99.90;;;;;;5011619;28;20048;-83
2023/10/01 06:32:00;;;;;;;50.47;20.95;;;8.70;99.90;;;;;;5010934;28;20030;-84
2023/10/01 06:34:31;;;;;;;49.40;20.30;;;8.70;99.90;;;;;;5028833;28;20026;-84
2023/10/01 06:37:01;;;;;;;46.03;19.58;;;8.90;99.90;;;;;;5028646;28;20083;-84
2023/10/01 06:39:32;;;;;;;59.00;22.38;;;9.00;99.90;;;;;;5011742;28;20521;-84
2023/10/01 06:42:18;;;;;;;;;;;9.10;99.90;;;;;;5012214;28;20392;-84
2023/10/01 06:44:48;;;;;;;51.63;20.05;;;9.20;99.90;;;;;;5011865;28;19948;-84
2023/10/01 06:47:18;;;;;;;50.25;21.00;;;9.40;99.90;;;;;;5028144;28;20037;-84
2023/10/01 06:49:57;;;;;;;45.65;20.20;;;9.50;99.90;;;;;;5028083;28;20034;-84
2023/10/01 06:52:27;;;;;;;47.30;20.25;;;9.60;99.90;;;;;;4995739;28;20426;-84
2023/10/01 06:54:57;;;;;;;61.78;24.13;;;9.80;99.90;;;;;;5011958;28;20046;-84
2023/10/01 06:57:33;;;;;;;53.63;22.38;;;10.00;99.90;;;;;;5029419;28;20104;-84
2023/10/01 06:59:59;;;;;;;60.17;24.05;;;10.20;99.90;;;;;;4996948;28;20401;-84
2023/10/01 07:02:27;;;;;;;60.13;24.13;;;10.40;99.90;;;;;;5031047;28;20060;-84
2023/10/01 07:04:58;;;;;;;58.72;26.35;;;10.60;99.90;;;;;;5011718;28;20033;-83
2023/10/01 07:07:28;;;;;;;52.25;23.75;;;10.80;99.90;;;;;;5011797;28;20549;-84
2023/10/01 07:10:00;;;;;;;56.27;25.30;;;11.00;99.90;;;;;;5013101;28;20477;-84
2023/10/01 07:12:26;;;;;;;48.67;24.25;;;11.10;99.90;;;;;;5028295;28;20281;-83
2023/10/01 07:14:52;;;;;;;55.05;24.85;;;11.20;99.90;;;;;;5014982;28;20038;-84
2023/10/01 07:17:24;;;;;;;47.58;23.27;;;11.30;99.90;;;;;;5015324;28;20029;-84
2023/10/01 07:20:01;;;;;;;50.58;22.80;;;11.40;99.90;;;;;;5015575;28;20030;-84
2023/10/01 07:22:34;;;;;;;41.22;19.58;;;11.50;99.90;;;;;;5015691;28;20033;-84
2023/10/01 07:25:01;;;;;;;45.40;20.35;;;11.50;99.90;;;;;;5015726;28;20509;-84
2023/10/01 07:27:27;;;;;;;43.25;20.88;;;11.60;99.90;;;;;;5015770;28;20129;-84
2023/10/01 07:29:54;;;;;;;45.00;19.25;;;11.70;99.90;;;;;;5016281;28;20045;-84
2023/10/01 07:32:22;;;;;;;41.40;19.02;;;11.70;99.90;;;;;;5015011;28;20034;-83
2023/10/01 07:34:55;;;;;;;35.50;17.63;;;11.80;99.90;;;;;;5031732;28;20034;-84
2023/10/01 07:37:25;;;;;;;35.75;16.60;;;11.90;99.90;;;;;;5014517;28;20030;-84
2023/10/01 07:39:59;;;;;;;34.10;17.92;;;12.10;99.90;;;;;;5015104;28;20068;-84
2023/10/01 07:42:28;;;;;;;33.17;16.42;;;12.20;99.90;;;;;;5015065;28;20033;-84
2023/10/01 07:44:56;;;;;;;39.85;18.75;;;12.30;99.90;;;;;;5014858;28;20044;-84
2023/10/01 07:47:28;;;;;;;36.08;15.93;;;12.40;99.90;;;;;;5015435;28;20692;-84
2023/10/01 07:50:01;;;;;;;31.85;15.45;;;12.50;99.90;;;;;;5032070;28;20034;-84
2023/10/01 07:52:27;;;;;;;30.80;14.45;;;12.60;99.90;;;;;;5015290;28;20044;-84
2023/10/01 07:54:55;;;;;;;34.38;15.25;;;12.70;99.90;;;;;;5015063;28;20104;-84
2023/10/01 07:57:27;;;;;;;31.27;14.98;;;12.90;99.90;;;;;;5015058;28;20040;-84
2023/10/01 07:59:59;;;;;;;27.83;13.52;;;13.00;99.90;;;;;;5015184;28;20037;-84
2023/10/01 08:02:28;;;;;;;29.48;12.93;;;13.10;99.90;;;;;;5031348;28;20437;-84
2023/10/01 08:07:30;;;;;;;27.50;12.00;;;13.20;99.90;;;;;;5015978;28;20041;-84
2023/10/01 08:09:58;;;;;;;29.27;12.82;;;13.30;99.90;;;;;;5030739;28;20048;-83
2023/10/01 08:12:29;;;;;;;27.05;11.15;;;13.40;99.90;;;;;;5013706;28;20037;-84
2023/10/01 08:17:43;;;;;;;23.20;10.65;;;13.50;99.90;;;;;;5030880;28;20128;-84
2023/10/01 08:20:21;;;;;;;24.08;11.02;;;13.70;99.90;;;;;;5014091;28;20069;-83
2023/10/01 08:25:42;;;;;;;23.70;10.25;;;13.90;99.90;;;;;;5015247;28;20417;-83
2023/10/01 08:30:43;;;;;;;22.58;11.02;;;14.20;99.90;;;;;;5030087;28;20061;-83
2023/10/01 08:33:18;;;;;;;21.65;9.75;;;14.30;99.90;;;;;;5030926;28;20026;-83
2023/10/01 08:35:56;;;;;;;18.17;9.40;;;14.40;99.90;;;;;;5014289;28;20073;-84
2023/10/01 08:38:29;;;;;;;19.58;9.40;;;14.50;99.90;;;;;;5030196;28;20772;-83
2023/10/01 08:41:00;;;;;;;21.73;9.60;;;14.60;99.90;;;;;;5014181;28;20041;-83
2023/10/01 08:43:30;;;;;;;24.20;10.10;;;14.80;99.90;;;;;;5014242;28;20034;-83
2023/10/01 08:46:03;;;;;;;19.25;8.95;;;15.00;99.90;;;;;;5014336;28;20042;-83
2023/10/01 08:48:36;;;;;;;21.85;9.32;;;15.40;99.90;;;;;;5030634;28;20397;-83
2023/10/01 08:51:11;;;;;;;17.00;7.80;;;16.40;99.90;;;;;;5029171;28;20453;-84
2023/10/01 08:53:42;;;;;;;18.17;8.60;;;17.60;99.90;;;;;;5030080;28;20394;-84
2023/10/01 08:56:13;;;;;;;16.15;7.22;;;18.80;99.90;;;;;;5013587;28;20084;-84
2023/10/01 08:58:48;;;;;;;15.98;7.45;;;19.30;99.90;;;;;;5030280;28;20033;-83
2023/10/01 09:01:21;;;;;;;17.48;7.80;;;19.80;99.90;;;;;;5030319;28;20064;-84
2023/10/01 09:03:47;;;;;;;15.65;7.75;;;19.80;99.90;;;;;;5030342;28;20059;-84
2023/10/01 09:06:24;;;;;;;15.00;7.78;;;19.30;99.90;;;;;;5013682;28;20500;-84
2023/10/01 09:08:54;;;;;;;16.08;8.30;;;19.00;99.90;;;;;;5029221;28;20034;-84
2023/10/01 09:11:47;;;;;;;15.13;7.73;;;18.90;99.90;;;;;;5013131;28;20030;-84
2023/10/01 09:14:21;;;;;;;15.13;7.72;;;18.90;99.90;;;;;;5030039;28;20768;-84
2023/10/01 09:16:57;;;;;;;20.05;7.15;;;19.10;99.90;;;;;;5013622;28;20037;-83
2023/10/01 09:19:30;;;;;;;13.02;7.35;;;19.50;99.90;;;;;;5013267;28;20033;-84
2023/10/01 09:22:16;;;;;;;12.02;7.07;;;19.80;99.90;;;;;;5013825;28;20132;-84
2023/10/01 09:24:55;;;;;;;15.38;7.72;;;19.90;99.90;;;;;;5028884;28;20057;-84
2023/10/01 09:27:32;;;;;;;13.27;6.22;;;20.20;99.90;;;;;;5028310;28;20049;-84
2023/10/01 09:32:51;;;;;;;17.38;7.78;;;21.10;99.90;;;;;;5029406;28;20033;-85
2023/10/01 09:35:49;;;;;;;15.90;7.85;;;21.90;99.90;;;;;;5028899;28;20026;-85
2023/10/01 09:38:19;;;;;;;17.67;7.25;;;22.40;99.90;;;;;;5012433;28;20034;-85
2023/10/01 09:40:46;;;;;;;17.58;7.15;;;22.40;99.90;;;;;;5012301;28;20096;-85
2023/10/01 09:43:19;;;;;;;12.88;7.00;;;22.70;99.90;;;;;;5012603;28;20040;-85
2023/10/01 09:45:53;;;;;;;14.02;6.90;;;23.10;99.90;;;;;;5013003;28;20030;-85
2023/10/01 09:48:30;;;;;;;14.48;7.90;;;23.20;99.90;;;;;;5012569;28;20103;-84
2023/10/01 09:51:15;;;;;;;17.30;7.60;;;23.10;99.90;;;;;;5012249;28;20026;-84
2023/10/01 09:54:00;;;;;;;19.73;7.32;;;22.60;99.90;;;;;;5012407;28;20124;-85
2023/10/01 09:56:26;;;;;;;14.25;7.53;;;22.20;99.90;;;;;;5012753;28;20121;-85
2023/10/01 09:59:07;;;;;;;14.48;7.00;;;22.20;99.90;;;;;;5012608;28;20037;-85
2023/10/01 10:01:38;;;;;;;13.60;7.20;;;22.00;99.90;;;;;;5029083;28;20095;-85
2023/10/01 10:04:06;;;;;;;17.47;7.87;;;21.80;99.90;;;;;;5012837;28;20041;-85
2023/10/01 10:06:32;;;;;;;13.45;8.00;;;21.10;99.90;;;;;;5029063;28;20094;-85
2023/10/01 10:09:03;;;;;;;18.92;8.30;;;21.00;99.90;;;;;;5012086;28;20057;-85
2023/10/01 10:11:43;;;;;;;20.02;8.48;;;20.90;99.90;;;;;;5011956;28;20382;-84
2023/10/01 10:14:27;;;;;;;16.55;7.68;;;21.10;99.90;;;;;;5012732;28;20558;-85
2023/10/01 10:17:07;;;;;;;12.68;6.75;;;20.80;99.90;;;;;;5028229;28;20088;-84
2023/10/01 10:19:53;;;;;;;18.02;7.97;;;21.00;99.90;;;;;;5027453;28;20128;-84
2023/10/01 10:22:19;;;;;;;16.88;7.88;;;21.00;99.90;;;;;;5027859;28;20033;-84
2023/10/01 10:24:46;;;;;;;19.17;7.82;;;21.20;99.90;;;;;;5011428;28;20040;-87
2023/10/01 10:27:25;;;;;;;13.23;6.72;;;21.30;99.90;;;;;;5028106;28;20477;-85
2023/10/01 10:29:56;;;;;;;15.32;7.57;;;21.60;99.90;;;;;;5011616;28;20041;-85
2023/10/01 10:32:30;;;;;;;15.98;7.82;;;21.90;99.90;;;;;;5028107;28;20046;-84
2023/10/01 10:35:05;;;;;;;16.67;7.88;;;21.90;99.90;;;;;;5027882;28;20068;-85
2023/10/01 10:37:37;;;;;;;18.17;7.47;;;21.50;99.90;;;;;;5027965;28;20130;-84
2023/10/01 10:40:13;;;;;;;20.20;8.32;;;21.10;99.90;;;;;;5027333;28;20116;-84
2023/10/01 10:42:40;;;;;;;14.23;7.75;;;20.80;99.90;;;;;;5027964;28;20056;-84
2023/10/01 10:45:22;;;;;;;17.02;8.25;;;20.80;99.90;;;;;;5011391;28;20053;-84
2023/10/01 10:48:01;;;;;;;15.43;7.85;;;21.50;99.90;;;;;;5011316;28;20080;-85
2023/10/01 10:50:44;;;;;;;16.17;7.47;;;22.70;99.90;;;;;;5011103;28;20118;-85
2023/10/01 10:53:15;;;;;;;13.18;7.40;;;23.40;99.90;;;;;;5011197;28;20037;-84
2023/10/01 10:55:52;;;;;;;14.27;7.22;;;23.40;99.90;;;;;;5010843;28;20037;-85
2023/10/01 10:58:19;;;;;;;15.77;8.13;;;23.40;99.90;;;;;;5011187;28;20037;-85
2023/10/01 11:00:47;;;;;;;17.55;7.93;;;23.10;99.90;;;;;;5011258;28;20794;-85
2023/10/01 11:03:13;;;;;;;16.65;8.32;;;23.20;99.90;;;;;;5028058;28;20042;-85
2023/10/01 11:05:49;;;;;;;14.70;7.53;;;23.30;99.90;;;;;;5011153;28;20469;-85
2023/10/01 11:08:27;;;;;;;15.77;8.00;;;24.00;99.90;;;;;;5011478;28;20030;-85
2023/10/01 11:10:54;;;;;;;16.45;7.95;;;24.90;99.90;;;;;;5027709;28;20034;-85
2023/10/01 11:13:37;;;;;;;15.10;8.10;;;25.40;99.90;;;;;;5011118;28;20025;-85
2023/10/01 11:16:14;;;;;;;12.95;7.55;;;25.90;99.90;;;;;;5010811;28;20465;-85
2023/10/01 11:18:44;;;;;;;17.38;8.75;;;26.00;99.90;;;;;;5027797;28;20096;-86
2023/10/01 11:21:13;;;;;;;;;;;26.50;99.90;;;;;;5011643;28;20061;-86
2023/10/01 11:23:39;;;;;;;14.43;7.38;;;26.90;99.90;;;;;;5027903;28;19982;-86
2023/10/01 11:26:26;;;;;;;14.65;7.47;;;27.20;99.90;;;;;;5012139;28;20470;-86
2023/10/01 11:28:52;;;;;;;17.13;7.93;;;27.40;99.60;;;;;;5011382;28;20034;-85
2023/10/01 11:31:23;;;;;;;12.90;7.55;;;26.80;98.90;;;;;;5027186;28;20041;-85
2023/10/01 11:34:21;;;;;;;15.45;8.30;;;27.20;97.80;;;;;;5027857;28;20091;-85
2023/10/01 11:36:56;;;;;;;14.82;8.43;;;27.30;97.60;;;;;;5027868;28;20100;-85
2023/10/01 11:39:38;;;;;;;16.45;8.07;;;26.80;98.60;;;;;;5027481;28;20404;-85
2023/10/01 11:42:19;;;;;;;14.43;8.05;;;25.10;99.60;;;;;;5011559;28;20030;-85
2023/10/01 11:44:52;;;;;;;14.77;8.07;;;24.60;99.90;;;;;;5010901;28;20501;-85
2023/10/01 11:47:31;;;;;;;15.88;8.07;;;25.20;99.90;;;;;;5010974;28;20058;-85
2023/10/01 11:50:09;;;;;;;14.75;8.25;;;25.80;99.70;;;;;;5012369;28;20030;-85
2023/10/01 11:52:36;;;;;;;18.27;8.63;;;26.30;98.80;;;;;;5011055;28;20034;-85
2023/10/01 11:55:18;;;;;;;14.32;8.07;;;26.30;98.10;;;;;;5010806;28;20022;-85
2023/10/01 11:57:51;;;;;;;17.30;8.13;;;26.50;97.30;;;;;;5010953;28;20080;-85
2023/10/01 12:00:36;;;;;;;12.65;7.85;;;26.40;97.50;;;;;;5029855;28;20049;-85
2023/10/01 12:03:10;;;;;;;17.45;8.63;;;26.50;96.80;;;;;;5013995;28;20033;-85
2023/10/01 12:05:41;;;;;;;16.88;8.00;;;26.10;96.70;;;;;;5013769;28;20072;-85
2023/10/01 12:08:14;;;;;;;14.93;8.13;;;25.90;97.00;;;;;;5014670;28;20394;-85
2023/10/01 12:10:41;;;;;;;15.85;8.05;;;25.90;97.00;;;;;;5030927;28;20040;-85
2023/10/01 12:13:07;;;;;;;15.32;8.15;;;26.00;97.40;;;;;;5014055;28;20031;-84
2023/10/01 12:15:51;;;;;;;11.77;6.93;;;25.90;98.00;;;;;;5030241;28;20073;-85
2023/10/01 12:18:17;;;;;;;18.75;7.55;;;25.40;97.40;;;;;;5030653;28;20370;-85
2023/10/01 12:20:47;;;;;;;16.25;8.65;;;24.90;98.40;;;;;;5014379;28;20030;-85
2023/10/01 12:23:19;;;;;;;15.35;8.13;;;24.70;99.60;;;;;;5014782;28;20132;-85
2023/10/01 12:25:49;;;;;;;15.63;8.23;;;24.50;99.10;;;;;;5030686;28;20061;-85
2023/10/01 12:28:23;;;;;;;18.25;8.57;;;24.00;99.10;;;;;;5030643;28;20202;-85
2023/10/01 12:33:46;;;;;;;17.42;8.52;;;23.50;99.90;;;;;;5005412;28;20087;-85
2023/10/01 12:36:32;;;;;;;17.08;8.48;;;23.30;99.90;;;;;;5013476;28;20022;-85
2023/10/01 12:44:25;;;;;;;18.10;8.38;;;23.30;99.90;;;;;;5030707;28;20069;-85
2023/10/01 12:46:54;;;;;;;18.23;7.82;;;23.50;99.90;;;;;;5030364;28;20037;-85
2023/10/01 12:49:21;;;;;;;19.02;8.60;;;23.80;99.90;;;;;;5013998;28;20033;-85
2023/10/01 12:51:53;;;;;;;19.00;9.63;;;23.90;99.80;;;;;;5014100;28;20030;-85
2023/10/01 12:54:22;;;;;;;13.45;7.93;;;24.20;98.90;;;;;;5014523;28;20030;-85
2023/10/01 12:57:02;;;;;;;18.98;9.07;;;24.40;99.40;;;;;;5030594;28;20034;-85
2023/10/01 12:59:41;;;;;;;16.38;9.18;;;24.40;99.30;;;;;;5014002;28;20072;-85
2023/10/01 13:02:22;;;;;;;15.48;7.95;;;23.90;99.30;;;;;;5015137;28;20080;-85
2023/10/01 13:04:50;;;;;;;16.63;8.30;;;23.30;99.80;;;;;;5030667;28;20729;-85
2023/10/01 13:07:35;;;;;;;17.42;8.00;;;22.90;99.90;;;;;;5013708;28;20056;-85
2023/10/01 13:10:05;;;;;;;15.32;7.63;;;22.40;99.90;;;;;;5030363;28;20033;-84
2023/10/01 13:15:29;;;;;;;18.55;8.25;;;21.90;99.90;;;;;;5030334;28;20504;-86
2023/10/01 13:18:01;;;;;;;16.20;8.05;;;21.80;99.90;;;;;;5014185;28;20066;-85
2023/10/01 13:20:48;;;;;;;19.88;8.38;;;21.70;99.90;;;;;;5013970;28;20458;-85
2023/10/01 13:23:13;;;;;;;17.10;8.13;;;21.50;99.90;;;;;;5014642;28;20034;-85
2023/10/01 13:25:46;;;;;;;19.48;9.43;;;21.50;99.90;;;;;;5029660;28;20088;-84
2023/10/01 13:28:19;;;;;;;18.35;8.48;;;21.30;99.90;;;;;;5013498;28;20696;-84
2023/10/01 13:33:25;;;;;;;19.05;8.90;;;20.90;99.90;;;;;;5029984;28;20053;-84
2023/10/01 13:35:57;;;;;;;19.90;9.20;;;20.80;99.90;;;;;;5014016;28;20030;-84
2023/10/01 13:38:37;;;;;;;16.73;8.77;;;20.50;99.90;;;;;;5029976;28;20025;-84
2023/10/01 14:08:44;;;;;;;17.98;8.75;;;20.00;99.90;;;;;;5029307;28;20036;-84
2023/10/01 14:11:11;;;;;;;19.02;8.98;;;19.90;99.90;;;;;;5012528;28;20038;-84
2023/10/01 14:13:37;;;;;;;23.30;9.70;;;19.90;99.90;;;;;;5030507;28;20064;-85
2023/10/01 14:16:17;;;;;;;17.92;9.00;;;19.90;99.90;;;;;;5013389;28;20038;-84
2023/10/01 14:19:13;;;;;;;17.30;8.38;;;19.90;99.90;;;;;;5013887;28;20048;-85
2023/10/01 14:21:40;;;;;;;19.05;8.40;;;19.90;99.90;;;;;;5015264;28;20026;-85
2023/10/01 14:24:21;;;;;;;17.27;8.55;;;19.80;99.90;;;;;;5013006;28;20029;-85